sensor_id;sensor_type;location;lat;lon;timestamp;P1;durP1;ratioP1;P2;durP2;ratioP2
36747;SDS011;22716;51.556;5.080;2024-01-30T00:01:51;14.88;;;6.60;;
36747;SDS011;22716;51.556;5.080;2024-01-30T00:04:23;9.98;;;5.60;;
36747;SDS011;22716;51.556;5.080;2024-01-30T00:06:51;8.57;;;6.38;;
36747;SDS011;22716;51.556;5.080;2024-01-30T00:09:20;9.93;;;6.38;;
36747;SDS011;22716;51.556;5.080;2024-01-30T00:11:49;10.10;;;5.63;;
36747;SDS011;22716;51.556;5.080;2024-01-30T00:14:18;9.43;;;5.85;;
36747;SDS011;22716;51.556;5.080;2024-01-30T00:16:46;13.35;;;6.35;;
36747;SDS011;22716;51.556;5.080;2024-01-30T00:19:15;12.18;;;6.45;;
36747;SDS011;22716;51.556;5.080;2024-01-30T00:21:46;11.83;;;5.97;;
36747;SDS011;22716;51.556;5.080;2024-01-30T00:24:14;9.13;;;5.68;;
36747;SDS011;22716;51.556;5.080;2024-01-30T00:26:43;11.15;;;6.25;;
36747;SDS011;22716;51.556;5.080;2024-01-30T00:29:12;10.45;;;6.50;;
36747;SDS011;22716;51.556;5.080;2024-01-30T00:31:44;9.25;;;5.32;;
36747;SDS011;22716;51.556;5.080;2024-01-30T00:34:13;10.82;;;5.57;;
36747;SDS011;22716;51.556;5.080;2024-01-30T00:36:41;8.38;;;6.00;;
36747;SDS011;22716;51.556;5.080;2024-01-30T00:39:13;10.25;;;5.85;;
36747;SDS011;22716;51.556;5.080;2024-01-30T00:41:41;7.82;;;6.47;;
36747;SDS011;22716;51.556;5.080;2024-01-30T00:44:10;12.05;;;7.43;;
36747;SDS011;22716;51.556;5.080;2024-01-30T00:46:38;13.80;;;5.63;;
36747;SDS011;22716;51.556;5.080;2024-01-30T00:49:07;8.57;;;5.65;;
36747;SDS011;22716;51.556;5.080;2024-01-30T00:51:35;12.40;;;6.28;;
36747;SDS011;22716;51.556;5.080;2024-01-30T00:54:04;9.95;;;6.90;;
36747;SDS011;22716;51.556;5.080;2024-01-30T00:56:36;7.22;;;6.13;;
36747;SDS011;22716;51.556;5.080;2024-01-30T00:59:04;7.05;;;5.65;;
36747;SDS011;22716;51.556;5.080;2024-01-30T01:01:33;8.30;;;5.83;;
36747;SDS011;22716;51.556;5.080;2024-01-30T01:04:01;13.13;;;5.28;;
36747;SDS011;22716;51.556;5.080;2024-01-30T01:06:30;8.57;;;6.13;;
36747;SDS011;22716;51.556;5.080;2024-01-30T01:08:58;9.25;;;6.20;;
36747;SDS011;22716;51.556;5.080;2024-01-30T01:11:28;9.98;;;5.07;;
36747;SDS011;22716;51.556;5.080;2024-01-30T01:13:59;8.50;;;5.88;;
36747;SDS011;22716;51.556;5.080;2024-01-30T01:16:28;8.80;;;5.57;;
36747;SDS011;22716;51.556;5.080;2024-01-30T01:18:56;8.27;;;5.97;;
36747;SDS011;22716;51.556;5.080;2024-01-30T01:21:25;10.77;;;6.03;;
36747;SDS011;22716;51.556;5.080;2024-01-30T01:23:54;12.27;;;5.38;;
36747;SDS011;22716;51.556;5.080;2024-01-30T01:26:22;7.17;;;4.70;;
36747;SDS011;22716;51.556;5.080;2024-01-30T01:28:51;7.65;;;5.13;;
36747;SDS011;22716;51.556;5.080;2024-01-30T01:31:22;9.10;;;5.05;;
36747;SDS011;22716;51.556;5.080;2024-01-30T01:33:54;6.53;;;5.30;;
36747;SDS011;22716;51.556;5.080;2024-01-30T01:36:23;9.60;;;6.38;;
36747;SDS011;22716;51.556;5.080;2024-01-30T01:38:52;8.95;;;5.45;;
36747;SDS011;22716;51.556;5.080;2024-01-30T01:41:20;7.43;;;4.93;;
36747;SDS011;22716;51.556;5.080;2024-01-30T01:43:49;6.43;;;5.15;;
36747;SDS011;22716;51.556;5.080;2024-01-30T01:46:17;8.93;;;5.93;;
36747;SDS011;22716;51.556;5.080;2024-01-30T01:48:48;9.57;;;6.23;;
36747;SDS011;22716;51.556;5.080;2024-01-30T01:51:17;8.10;;;5.78;;
36747;SDS011;22716;51.556;5.080;2024-01-30T01:53:47;7.18;;;5.03;;
36747;SDS011;22716;51.556;5.080;2024-01-30T01:56:15;8.15;;;4.97;;
36747;SDS011;22716;51.556;5.080;2024-01-30T01:58:44;8.20;;;6.35;;
36747;SDS011;22716;51.556;5.080;2024-01-30T02:01:16;7.22;;;5.40;;
36747;SDS011;22716;51.556;5.080;2024-01-30T02:03:50;9.63;;;4.80;;
36747;SDS011;22716;51.556;5.080;2024-01-30T02:06:19;7.65;;;4.80;;
36747;SDS011;22716;51.556;5.080;2024-01-30T02:08:48;9.27;;;4.70;;
36747;SDS011;22716;51.556;5.080;2024-01-30T02:11:16;10.80;;;5.07;;
36747;SDS011;22716;51.556;5.080;2024-01-30T02:13:45;8.38;;;5.35;;
36747;SDS011;22716;51.556;5.080;2024-01-30T02:16:14;7.90;;;5.63;;
36747;SDS011;22716;51.556;5.080;2024-01-30T02:18:42;7.78;;;5.15;;
36747;SDS011;22716;51.556;5.080;2024-01-30T02:21:16;11.27;;;5.03;;
36747;SDS011;22716;51.556;5.080;2024-01-30T02:23:46;7.00;;;5.18;;
36747;SDS011;22716;51.556;5.080;2024-01-30T02:26:16;8.60;;;5.25;;
36747;SDS011;22716;51.556;5.080;2024-01-30T02:28:45;8.95;;;5.15;;
36747;SDS011;22716;51.556;5.080;2024-01-30T02:31:13;7.63;;;5.63;;
36747;SDS011;22716;51.556;5.080;2024-01-30T02:33:42;10.82;;;5.65;;
36747;SDS011;22716;51.556;5.080;2024-01-30T02:36:11;11.75;;;5.38;;
36747;SDS011;22716;51.556;5.080;2024-01-30T02:38:43;8.47;;;5.53;;
36747;SDS011;22716;51.556;5.080;2024-01-30T02:41:12;6.55;;;4.80;;
36747;SDS011;22716;51.556;5.080;2024-01-30T02:43:40;6.30;;;4.68;;
36747;SDS011;22716;51.556;5.080;2024-01-30T02:46:09;11.05;;;4.75;;
36747;SDS011;22716;51.556;5.080;2024-01-30T02:48:38;9.02;;;4.45;;
36747;SDS011;22716;51.556;5.080;2024-01-30T02:51:06;7.80;;;5.15;;
36747;SDS011;22716;51.556;5.080;2024-01-30T02:53:35;9.07;;;5.03;;
36747;SDS011;22716;51.556;5.080;2024-01-30T02:56:07;13.65;;;5.35;;
36747;SDS011;22716;51.556;5.080;2024-01-30T02:58:35;10.73;;;5.55;;
36747;SDS011;22716;51.556;5.080;2024-01-30T03:01:04;7.38;;;4.63;;
36747;SDS011;22716;51.556;5.080;2024-01-30T03:03:33;6.93;;;5.15;;
36747;SDS011;22716;51.556;5.080;2024-01-30T03:06:02;6.95;;;5.38;;
36747;SDS011;22716;51.556;5.080;2024-01-30T03:08:31;10.00;;;5.43;;
36747;SDS011;22716;51.556;5.080;2024-01-30T03:11:00;8.80;;;5.40;;
36747;SDS011;22716;51.556;5.080;2024-01-30T03:13:31;8.80;;;5.03;;
36747;SDS011;22716;51.556;5.080;2024-01-30T03:16:00;9.60;;;5.22;;
36747;SDS011;22716;51.556;5.080;2024-01-30T03:18:28;9.57;;;5.90;;
36747;SDS011;22716;51.556;5.080;2024-01-30T03:20:57;7.78;;;5.68;;
36747;SDS011;22716;51.556;5.080;2024-01-30T03:23:26;6.97;;;4.38;;
36747;SDS011;22716;51.556;5.080;2024-01-30T03:25:55;9.65;;;5.18;;
36747;SDS011;22716;51.556;5.080;2024-01-30T03:28:23;6.50;;;4.57;;
36747;SDS011;22716;51.556;5.080;2024-01-30T03:30:54;7.32;;;4.78;;
36747;SDS011;22716;51.556;5.080;2024-01-30T03:33:23;6.43;;;4.75;;
36747;SDS011;22716;51.556;5.080;2024-01-30T03:35:52;10.57;;;4.82;;
36747;SDS011;22716;51.556;5.080;2024-01-30T03:38:21;7.00;;;5.67;;
36747;SDS011;22716;51.556;5.080;2024-01-30T03:40:49;6.95;;;5.15;;
36747;SDS011;22716;51.556;5.080;2024-01-30T03:43:18;8.90;;;4.85;;
36747;SDS011;22716;51.556;5.080;2024-01-30T03:45:46;11.73;;;5.00;;
36747;SDS011;22716;51.556;5.080;2024-01-30T03:48:18;7.65;;;4.53;;
36747;SDS011;22716;51.556;5.080;2024-01-30T03:50:46;6.60;;;4.63;;
36747;SDS011;22716;51.556;5.080;2024-01-30T03:53:15;8.10;;;5.40;;
36747;SDS011;22716;51.556;5.080;2024-01-30T03:55:43;7.30;;;4.80;;
36747;SDS011;22716;51.556;5.080;2024-01-30T03:58:12;10.18;;;4.50;;
36747;SDS011;22716;51.556;5.080;2024-01-30T04:00:40;7.25;;;4.55;;
36747;SDS011;22716;51.556;5.080;2024-01-30T04:03:09;7.15;;;5.25;;
36747;SDS011;22716;51.556;5.080;2024-01-30T04:05:41;5.75;;;4.38;;
36747;SDS011;22716;51.556;5.080;2024-01-30T04:08:09;6.93;;;5.15;;
36747;SDS011;22716;51.556;5.080;2024-01-30T04:10:38;6.82;;;4.55;;
36747;SDS011;22716;51.556;5.080;2024-01-30T04:13:06;6.75;;;4.65;;
36747;SDS011;22716;51.556;5.080;2024-01-30T04:15:35;8.15;;;4.72;;
36747;SDS011;22716;51.556;5.080;2024-01-30T04:18:04;7.88;;;4.78;;
36747;SDS011;22716;51.556;5.080;2024-01-30T04:20:33;8.70;;;4.35;;
36747;SDS011;22716;51.556;5.080;2024-01-30T04:23:04;8.17;;;4.87;;
36747;SDS011;22716;51.556;5.080;2024-01-30T04:25:33;6.82;;;5.40;;
36747;SDS011;22716;51.556;5.080;2024-01-30T04:28:01;6.85;;;4.72;;
36747;SDS011;22716;51.556;5.080;2024-01-30T04:30:30;6.00;;;4.85;;
36747;SDS011;22716;51.556;5.080;2024-01-30T04:32:59;6.30;;;4.55;;
36747;SDS011;22716;51.556;5.080;2024-01-30T04:35:27;8.73;;;4.82;;
36747;SDS011;22716;51.556;5.080;2024-01-30T04:37:56;7.50;;;4.85;;
36747;SDS011;22716;51.556;5.080;2024-01-30T04:40:27;7.22;;;4.13;;
36747;SDS011;22716;51.556;5.080;2024-01-30T04:42:55;7.18;;;5.10;;
36747;SDS011;22716;51.556;5.080;2024-01-30T04:45:24;6.68;;;4.70;;
36747;SDS011;22716;51.556;5.080;2024-01-30T04:47:58;9.73;;;5.13;;
36747;SDS011;22716;51.556;5.080;2024-01-30T04:50:26;9.05;;;5.00;;
36747;SDS011;22716;51.556;5.080;2024-01-30T04:52:55;10.07;;;4.70;;
36747;SDS011;22716;51.556;5.080;2024-01-30T04:55:23;8.93;;;4.80;;
36747;SDS011;22716;51.556;5.080;2024-01-30T04:57:55;13.95;;;5.47;;
36747;SDS011;22716;51.556;5.080;2024-01-30T05:00:23;8.50;;;4.60;;
36747;SDS011;22716;51.556;5.080;2024-01-30T05:02:52;8.38;;;4.93;;
36747;SDS011;22716;51.556;5.080;2024-01-30T05:05:20;9.75;;;4.95;;
36747;SDS011;22716;51.556;5.080;2024-01-30T05:07:49;9.52;;;4.90;;
36747;SDS011;22716;51.556;5.080;2024-01-30T05:10:18;11.18;;;5.50;;
36747;SDS011;22716;51.556;5.080;2024-01-30T05:12:49;7.28;;;5.03;;
36747;SDS011;22716;51.556;5.080;2024-01-30T05:15:17;8.35;;;4.47;;
36747;SDS011;22716;51.556;5.080;2024-01-30T05:17:47;7.53;;;5.35;;
36747;SDS011;22716;51.556;5.080;2024-01-30T05:20:16;6.30;;;4.45;;
36747;SDS011;22716;51.556;5.080;2024-01-30T05:22:45;7.25;;;5.45;;
36747;SDS011;22716;51.556;5.080;2024-01-30T05:25:13;5.80;;;4.20;;
36747;SDS011;22716;51.556;5.080;2024-01-30T05:27:42;5.43;;;4.32;;
36747;SDS011;22716;51.556;5.080;2024-01-30T05:30:14;9.70;;;4.73;;
36747;SDS011;22716;51.556;5.080;2024-01-30T05:32:43;6.43;;;4.30;;
36747;SDS011;22716;51.556;5.080;2024-01-30T05:35:12;11.07;;;4.43;;
36747;SDS011;22716;51.556;5.080;2024-01-30T05:37:40;8.32;;;5.70;;
36747;SDS011;22716;51.556;5.080;2024-01-30T05:40:11;8.27;;;4.35;;
36747;SDS011;22716;51.556;5.080;2024-01-30T05:42:39;8.30;;;5.15;;
36747;SDS011;22716;51.556;5.080;2024-01-30T05:45:08;7.60;;;4.75;;
36747;SDS011;22716;51.556;5.080;2024-01-30T05:47:40;7.53;;;4.60;;
36747;SDS011;22716;51.556;5.080;2024-01-30T05:50:08;7.28;;;5.28;;
36747;SDS011;22716;51.556;5.080;2024-01-30T05:52:37;6.90;;;4.47;;
36747;SDS011;22716;51.556;5.080;2024-01-30T05:55:06;9.40;;;5.03;;
36747;SDS011;22716;51.556;5.080;2024-01-30T05:57:37;14.52;;;5.20;;
36747;SDS011;22716;51.556;5.080;2024-01-30T06:00:06;10.32;;;5.10;;
36747;SDS011;22716;51.556;5.080;2024-01-30T06:02:35;7.38;;;4.90;;
36747;SDS011;22716;51.556;5.080;2024-01-30T06:05:07;6.30;;;4.43;;
36747;SDS011;22716;51.556;5.080;2024-01-30T06:07:36;9.70;;;5.27;;
36747;SDS011;22716;51.556;5.080;2024-01-30T06:10:05;8.50;;;4.82;;
36747;SDS011;22716;51.556;5.080;2024-01-30T06:12:35;6.90;;;4.20;;
36747;SDS011;22716;51.556;5.080;2024-01-30T06:15:04;6.88;;;4.57;;
36747;SDS011;22716;51.556;5.080;2024-01-30T06:17:35;8.18;;;4.75;;
36747;SDS011;22716;51.556;5.080;2024-01-30T06:20:07;6.95;;;4.47;;
36747;SDS011;22716;51.556;5.080;2024-01-30T06:22:35;5.82;;;4.95;;
36747;SDS011;22716;51.556;5.080;2024-01-30T06:25:04;6.57;;;4.70;;
36747;SDS011;22716;51.556;5.080;2024-01-30T06:27:33;8.95;;;4.95;;
36747;SDS011;22716;51.556;5.080;2024-01-30T06:30:02;8.70;;;5.20;;
36747;SDS011;22716;51.556;5.080;2024-01-30T06:32:32;7.22;;;4.57;;
36747;SDS011;22716;51.556;5.080;2024-01-30T06:35:00;7.60;;;5.30;;
36747;SDS011;22716;51.556;5.080;2024-01-30T06:37:31;10.75;;;4.95;;
36747;SDS011;22716;51.556;5.080;2024-01-30T06:40:00;10.52;;;5.10;;
36747;SDS011;22716;51.556;5.080;2024-01-30T06:42:30;10.43;;;5.22;;
36747;SDS011;22716;51.556;5.080;2024-01-30T06:44:58;11.98;;;4.85;;
36747;SDS011;22716;51.556;5.080;2024-01-30T06:47:27;9.27;;;5.70;;
36747;SDS011;22716;51.556;5.080;2024-01-30T06:49:57;13.00;;;5.80;;
36747;SDS011;22716;51.556;5.080;2024-01-30T06:52:27;5.35;;;4.50;;
36747;SDS011;22716;51.556;5.080;2024-01-30T06:54:58;10.20;;;5.55;;
36747;SDS011;22716;51.556;5.080;2024-01-30T06:57:27;9.02;;;5.18;;
36747;SDS011;22716;51.556;5.080;2024-01-30T06:59:56;8.20;;;5.20;;
36747;SDS011;22716;51.556;5.080;2024-01-30T07:02:24;10.32;;;5.13;;
36747;SDS011;22716;51.556;5.080;2024-01-30T07:04:53;8.90;;;5.00;;
36747;SDS011;22716;51.556;5.080;2024-01-30T07:07:21;7.45;;;4.55;;
36747;SDS011;22716;51.556;5.080;2024-01-30T07:09:50;10.20;;;5.13;;
36747;SDS011;22716;51.556;5.080;2024-01-30T07:12:24;9.43;;;5.10;;
36747;SDS011;22716;51.556;5.080;2024-01-30T07:14:53;7.80;;;4.75;;
36747;SDS011;22716;51.556;5.080;2024-01-30T07:17:21;7.35;;;4.72;;
36747;SDS011;22716;51.556;5.080;2024-01-30T07:19:50;10.30;;;5.80;;
36747;SDS011;22716;51.556;5.080;2024-01-30T07:22:18;17.73;;;4.20;;
36747;SDS011;22716;51.556;5.080;2024-01-30T07:24:47;8.73;;;4.75;;
36747;SDS011;22716;51.556;5.080;2024-01-30T07:27:17;10.40;;;5.03;;
36747;SDS011;22716;51.556;5.080;2024-01-30T07:29:49;9.48;;;5.53;;
36747;SDS011;22716;51.556;5.080;2024-01-30T07:32:18;9.57;;;4.97;;
36747;SDS011;22716;51.556;5.080;2024-01-30T07:34:46;8.23;;;5.40;;
36747;SDS011;22716;51.556;5.080;2024-01-30T07:37:15;10.55;;;5.25;;
36747;SDS011;22716;51.556;5.080;2024-01-30T07:39:44;6.68;;;5.03;;
36747;SDS011;22716;51.556;5.080;2024-01-30T07:42:13;8.70;;;5.32;;
36747;SDS011;22716;51.556;5.080;2024-01-30T07:44:43;7.72;;;5.57;;
36747;SDS011;22716;51.556;5.080;2024-01-30T07:47:14;12.48;;;5.10;;
36747;SDS011;22716;51.556;5.080;2024-01-30T07:49:42;6.78;;;5.05;;
36747;SDS011;22716;51.556;5.080;2024-01-30T07:52:11;6.65;;;4.68;;
36747;SDS011;22716;51.556;5.080;2024-01-30T07:54:43;8.73;;;5.40;;
36747;SDS011;22716;51.556;5.080;2024-01-30T07:57:17;6.63;;;4.95;;
36747;SDS011;22716;51.556;5.080;2024-01-30T07:59:46;10.35;;;5.13;;
36747;SDS011;22716;51.556;5.080;2024-01-30T08:02:17;8.43;;;5.22;;
36747;SDS011;22716;51.556;5.080;2024-01-30T08:04:46;6.68;;;5.45;;
36747;SDS011;22716;51.556;5.080;2024-01-30T08:07:15;8.50;;;5.65;;
36747;SDS011;22716;51.556;5.080;2024-01-30T08:09:44;11.75;;;5.15;;
36747;SDS011;22716;51.556;5.080;2024-01-30T08:12:12;10.18;;;5.68;;
36747;SDS011;22716;51.556;5.080;2024-01-30T08:14:41;7.55;;;4.97;;
36747;SDS011;22716;51.556;5.080;2024-01-30T08:17:09;7.33;;;5.40;;
36747;SDS011;22716;51.556;5.080;2024-01-30T08:19:40;7.03;;;4.85;;
36747;SDS011;22716;51.556;5.080;2024-01-30T08:22:09;13.40;;;5.70;;
36747;SDS011;22716;51.556;5.080;2024-01-30T08:24:37;7.95;;;5.22;;
36747;SDS011;22716;51.556;5.080;2024-01-30T08:27:06;8.23;;;4.97;;
36747;SDS011;22716;51.556;5.080;2024-01-30T08:29:35;8.30;;;5.32;;
36747;SDS011;22716;51.556;5.080;2024-01-30T08:32:04;8.18;;;5.13;;
36747;SDS011;22716;51.556;5.080;2024-01-30T08:34:33;7.82;;;5.47;;
36747;SDS011;22716;51.556;5.080;2024-01-30T08:37:05;7.57;;;5.22;;
36747;SDS011;22716;51.556;5.080;2024-01-30T08:39:33;8.82;;;4.55;;
36747;SDS011;22716;51.556;5.080;2024-01-30T08:42:02;9.77;;;5.15;;
36747;SDS011;22716;51.556;5.080;2024-01-30T08:44:31;8.45;;;5.28;;
36747;SDS011;22716;51.556;5.080;2024-01-30T08:46:59;9.30;;;4.93;;
36747;SDS011;22716;51.556;5.080;2024-01-30T08:49:28;10.25;;;6.82;;
36747;SDS011;22716;51.556;5.080;2024-01-30T08:51:57;8.80;;;4.97;;
36747;SDS011;22716;51.556;5.080;2024-01-30T08:54:28;9.98;;;5.82;;
36747;SDS011;22716;51.556;5.080;2024-01-30T08:56:59;9.70;;;6.28;;
36747;SDS011;22716;51.556;5.080;2024-01-30T08:59:27;11.50;;;5.75;;
36747;SDS011;22716;51.556;5.080;2024-01-30T09:01:56;8.70;;;5.28;;
36747;SDS011;22716;51.556;5.080;2024-01-30T09:04:25;13.00;;;5.95;;
36747;SDS011;22716;51.556;5.080;2024-01-30T09:06:53;8.10;;;5.43;;
36747;SDS011;22716;51.556;5.080;2024-01-30T09:09:22;9.02;;;5.32;;
36747;SDS011;22716;51.556;5.080;2024-01-30T09:11:53;13.50;;;6.05;;
36747;SDS011;22716;51.556;5.080;2024-01-30T09:14:23;8.05;;;5.35;;
36747;SDS011;22716;51.556;5.080;2024-01-30T09:16:52;9.95;;;6.07;;
36747;SDS011;22716;51.556;5.080;2024-01-30T09:19:20;9.35;;;5.13;;
36747;SDS011;22716;51.556;5.080;2024-01-30T09:21:48;8.50;;;5.93;;
36747;SDS011;22716;51.556;5.080;2024-01-30T09:24:17;13.23;;;5.70;;
36747;SDS011;22716;51.556;5.080;2024-01-30T09:26:46;11.70;;;5.55;;
36747;SDS011;22716;51.556;5.080;2024-01-30T09:29:17;8.97;;;4.63;;
36747;SDS011;22716;51.556;5.080;2024-01-30T09:31:46;8.40;;;6.07;;
36747;SDS011;22716;51.556;5.080;2024-01-30T09:34:14;10.45;;;5.80;;
36747;SDS011;22716;51.556;5.080;2024-01-30T09:36:43;9.20;;;5.57;;
36747;SDS011;22716;51.556;5.080;2024-01-30T09:39:11;13.10;;;5.45;;
36747;SDS011;22716;51.556;5.080;2024-01-30T09:41:44;7.50;;;5.57;;
36747;SDS011;22716;51.556;5.080;2024-01-30T09:44:19;11.90;;;5.45;;
36747;SDS011;22716;51.556;5.080;2024-01-30T09:46:49;10.70;;;5.63;;
36747;SDS011;22716;51.556;5.080;2024-01-30T09:49:18;13.53;;;5.67;;
36747;SDS011;22716;51.556;5.080;2024-01-30T09:51:49;9.73;;;6.05;;
36747;SDS011;22716;51.556;5.080;2024-01-30T09:54:19;9.20;;;5.18;;
36747;SDS011;22716;51.556;5.080;2024-01-30T09:56:49;10.87;;;5.73;;
36747;SDS011;22716;51.556;5.080;2024-01-30T09:59:20;12.70;;;6.72;;
36747;SDS011;22716;51.556;5.080;2024-01-30T10:01:49;10.87;;;5.30;;
36747;SDS011;22716;51.556;5.080;2024-01-30T10:04:18;10.60;;;5.82;;
36747;SDS011;22716;51.556;5.080;2024-01-30T10:06:47;12.07;;;6.67;;
36747;SDS011;22716;51.556;5.080;2024-01-30T10:09:16;15.07;;;6.95;;
36747;SDS011;22716;51.556;5.080;2024-01-30T10:11:45;12.98;;;6.25;;
36747;SDS011;22716;51.556;5.080;2024-01-30T10:14:13;13.03;;;6.67;;
36747;SDS011;22716;51.556;5.080;2024-01-30T10:16:45;10.20;;;6.68;;
36747;SDS011;22716;51.556;5.080;2024-01-30T10:19:14;12.90;;;6.13;;
36747;SDS011;22716;51.556;5.080;2024-01-30T10:21:42;21.30;;;7.13;;
36747;SDS011;22716;51.556;5.080;2024-01-30T10:24:11;10.90;;;6.35;;
36747;SDS011;22716;51.556;5.080;2024-01-30T10:26:40;9.63;;;5.68;;
36747;SDS011;22716;51.556;5.080;2024-01-30T10:29:12;10.48;;;6.93;;
36747;SDS011;22716;51.556;5.080;2024-01-30T10:31:40;10.23;;;5.73;;
36747;SDS011;22716;51.556;5.080;2024-01-30T10:34:12;11.93;;;7.47;;
36747;SDS011;22716;51.556;5.080;2024-01-30T10:36:40;16.17;;;7.65;;
36747;SDS011;22716;51.556;5.080;2024-01-30T10:39:15;10.95;;;6.60;;
36747;SDS011;22716;51.556;5.080;2024-01-30T10:41:45;8.43;;;5.72;;
36747;SDS011;22716;51.556;5.080;2024-01-30T10:44:17;12.40;;;6.20;;
36747;SDS011;22716;51.556;5.080;2024-01-30T10:46:49;7.97;;;5.30;;
36747;SDS011;22716;51.556;5.080;2024-01-30T10:49:27;8.85;;;5.22;;
36747;SDS011;22716;51.556;5.080;2024-01-30T10:51:58;10.32;;;5.60;;
36747;SDS011;22716;51.556;5.080;2024-01-30T10:54:27;12.77;;;4.72;;
36747;SDS011;22716;51.556;5.080;2024-01-30T10:56:58;9.68;;;5.03;;
36747;SDS011;22716;51.556;5.080;2024-01-30T10:59:30;8.73;;;5.40;;
36747;SDS011;22716;51.556;5.080;2024-01-30T11:01:59;15.95;;;5.43;;
36747;SDS011;22716;51.556;5.080;2024-01-30T11:04:37;9.70;;;4.32;;
36747;SDS011;22716;51.556;5.080;2024-01-30T11:07:16;8.25;;;4.40;;
36747;SDS011;22716;51.556;5.080;2024-01-30T11:09:49;7.28;;;4.93;;
36747;SDS011;22716;51.556;5.080;2024-01-30T11:12:21;14.00;;;4.87;;
36747;SDS011;22716;51.556;5.080;2024-01-30T11:15:01;6.72;;;4.32;;
36747;SDS011;22716;51.556;5.080;2024-01-30T11:17:44;7.47;;;5.18;;
36747;SDS011;22716;51.556;5.080;2024-01-30T11:20:22;12.05;;;5.13;;
36747;SDS011;22716;51.556;5.080;2024-01-30T11:22:56;12.20;;;5.35;;
36747;SDS011;22716;51.556;5.080;2024-01-30T11:25:25;11.43;;;5.43;;
36747;SDS011;22716;51.556;5.080;2024-01-30T11:27:54;9.52;;;4.88;;
36747;SDS011;22716;51.556;5.080;2024-01-30T11:30:24;7.40;;;4.45;;
36747;SDS011;22716;51.556;5.080;2024-01-30T11:33:03;6.28;;;4.38;;
36747;SDS011;22716;51.556;5.080;2024-01-30T11:35:37;6.03;;;4.38;;
36747;SDS011;22716;51.556;5.080;2024-01-30T11:38:07;11.73;;;4.80;;
36747;SDS011;22716;51.556;5.080;2024-01-30T11:40:37;6.97;;;3.75;;
36747;SDS011;22716;51.556;5.080;2024-01-30T11:43:07;5.10;;;3.67;;
36747;SDS011;22716;51.556;5.080;2024-01-30T11:45:37;4.57;;;3.50;;
36747;SDS011;22716;51.556;5.080;2024-01-30T11:48:06;8.68;;;3.83;;
36747;SDS011;22716;51.556;5.080;2024-01-30T11:50:38;7.45;;;3.08;;
36747;SDS011;22716;51.556;5.080;2024-01-30T11:53:08;6.22;;;2.80;;
36747;SDS011;22716;51.556;5.080;2024-01-30T11:55:37;3.47;;;1.92;;
36747;SDS011;22716;51.556;5.080;2024-01-30T11:58:06;8.38;;;2.35;;
36747;SDS011;22716;51.556;5.080;2024-01-30T12:00:35;3.22;;;2.47;;
36747;SDS011;22716;51.556;5.080;2024-01-30T12:03:04;6.10;;;2.67;;
36747;SDS011;22716;51.556;5.080;2024-01-30T12:05:32;2.30;;;1.87;;
36747;SDS011;22716;51.556;5.080;2024-01-30T12:08:04;5.00;;;2.60;;
36747;SDS011;22716;51.556;5.080;2024-01-30T12:10:33;2.70;;;1.37;;
36747;SDS011;22716;51.556;5.080;2024-01-30T12:13:02;1.63;;;1.27;;
36747;SDS011;22716;51.556;5.080;2024-01-30T12:15:31;8.95;;;2.58;;
36747;SDS011;22716;51.556;5.080;2024-01-30T12:18:06;4.30;;;1.80;;
36747;SDS011;22716;51.556;5.080;2024-01-30T12:20:35;10.20;;;1.90;;
36747;SDS011;22716;51.556;5.080;2024-01-30T12:23:07;1.77;;;1.35;;
36747;SDS011;22716;51.556;5.080;2024-01-30T12:25:36;4.45;;;1.67;;
36747;SDS011;22716;51.556;5.080;2024-01-30T12:28:05;3.25;;;1.48;;
36747;SDS011;22716;51.556;5.080;2024-01-30T12:30:34;2.75;;;1.50;;
36747;SDS011;22716;51.556;5.080;2024-01-30T12:33:03;2.33;;;1.42;;
36747;SDS011;22716;51.556;5.080;2024-01-30T12:35:34;2.47;;;1.40;;
36747;SDS011;22716;51.556;5.080;2024-01-30T12:38:02;5.45;;;2.05;;
36747;SDS011;22716;51.556;5.080;2024-01-30T12:40:34;5.28;;;1.30;;
36747;SDS011;22716;51.556;5.080;2024-01-30T12:43:03;2.13;;;0.83;;
36747;SDS011;22716;51.556;5.080;2024-01-30T12:45:31;3.95;;;1.42;;
36747;SDS011;22716;51.556;5.080;2024-01-30T12:48:00;3.95;;;0.77;;
36747;SDS011;22716;51.556;5.080;2024-01-30T12:50:29;6.47;;;1.17;;
36747;SDS011;22716;51.556;5.080;2024-01-30T12:52:57;2.70;;;1.00;;
36747;SDS011;22716;51.556;5.080;2024-01-30T12:55:26;2.17;;;0.98;;
36747;SDS011;22716;51.556;5.080;2024-01-30T12:57:58;2.50;;;1.00;;
36747;SDS011;22716;51.556;5.080;2024-01-30T13:00:27;3.00;;;1.53;;
36747;SDS011;22716;51.556;5.080;2024-01-30T13:02:55;3.78;;;1.13;;
36747;SDS011;22716;51.556;5.080;2024-01-30T13:05:24;9.15;;;1.27;;
36747;SDS011;22716;51.556;5.080;2024-01-30T13:07:52;1.52;;;0.82;;
36747;SDS011;22716;51.556;5.080;2024-01-30T13:10:22;2.95;;;0.80;;
36747;SDS011;22716;51.556;5.080;2024-01-30T13:12:51;1.60;;;1.25;;
36747;SDS011;22716;51.556;5.080;2024-01-30T13:15:22;6.13;;;1.33;;
36747;SDS011;22716;51.556;5.080;2024-01-30T13:17:51;2.90;;;1.35;;
36747;SDS011;22716;51.556;5.080;2024-01-30T13:20:19;5.10;;;1.13;;
36747;SDS011;22716;51.556;5.080;2024-01-30T13:22:48;2.92;;;1.00;;
36747;SDS011;22716;51.556;5.080;2024-01-30T13:25:17;3.88;;;1.85;;
36747;SDS011;22716;51.556;5.080;2024-01-30T13:27:46;0.80;;;0.70;;
36747;SDS011;22716;51.556;5.080;2024-01-30T13:30:15;2.67;;;1.20;;
36747;SDS011;22716;51.556;5.080;2024-01-30T13:32:46;6.30;;;1.48;;
36747;SDS011;22716;51.556;5.080;2024-01-30T13:35:15;3.60;;;1.63;;
36747;SDS011;22716;51.556;5.080;2024-01-30T13:37:43;2.00;;;1.00;;
36747;SDS011;22716;51.556;5.080;2024-01-30T13:40:13;2.25;;;1.08;;
36747;SDS011;22716;51.556;5.080;2024-01-30T13:42:42;3.43;;;1.20;;
36747;SDS011;22716;51.556;5.080;2024-01-30T13:45:11;3.00;;;1.10;;
36747;SDS011;22716;51.556;5.080;2024-01-30T13:47:40;2.35;;;0.93;;
36747;SDS011;22716;51.556;5.080;2024-01-30T13:50:11;11.18;;;2.65;;
36747;SDS011;22716;51.556;5.080;2024-01-30T13:52:42;3.22;;;1.55;;
36747;SDS011;22716;51.556;5.080;2024-01-30T13:55:10;4.25;;;1.45;;
36747;SDS011;22716;51.556;5.080;2024-01-30T13:57:39;4.28;;;1.88;;
36747;SDS011;22716;51.556;5.080;2024-01-30T14:00:08;5.65;;;1.75;;
36747;SDS011;22716;51.556;5.080;2024-01-30T14:02:41;4.45;;;1.83;;
36747;SDS011;22716;51.556;5.080;2024-01-30T14:05:12;8.30;;;2.95;;
36747;SDS011;22716;51.556;5.080;2024-01-30T14:07:42;8.82;;;3.05;;
36747;SDS011;22716;51.556;5.080;2024-01-30T14:10:11;11.40;;;3.97;;
36747;SDS011;22716;51.556;5.080;2024-01-30T14:12:41;6.68;;;3.30;;
36747;SDS011;22716;51.556;5.080;2024-01-30T14:15:10;8.53;;;3.20;;
36747;SDS011;22716;51.556;5.080;2024-01-30T14:17:43;11.93;;;5.33;;
36747;SDS011;22716;51.556;5.080;2024-01-30T14:20:16;11.03;;;3.77;;
36747;SDS011;22716;51.556;5.080;2024-01-30T14:22:45;11.25;;;3.70;;
36747;SDS011;22716;51.556;5.080;2024-01-30T14:25:14;11.15;;;3.90;;
36747;SDS011;22716;51.556;5.080;2024-01-30T14:27:45;6.03;;;3.63;;
36747;SDS011;22716;51.556;5.080;2024-01-30T14:30:14;6.40;;;3.17;;
36747;SDS011;22716;51.556;5.080;2024-01-30T14:32:42;7.00;;;3.55;;
36747;SDS011;22716;51.556;5.080;2024-01-30T14:35:12;9.13;;;3.25;;
36747;SDS011;22716;51.556;5.080;2024-01-30T14:37:43;10.77;;;4.75;;
36747;SDS011;22716;51.556;5.080;2024-01-30T14:40:12;9.57;;;3.67;;
36747;SDS011;22716;51.556;5.080;2024-01-30T14:42:40;5.50;;;3.40;;
36747;SDS011;22716;51.556;5.080;2024-01-30T14:45:09;7.82;;;3.33;;
36747;SDS011;22716;51.556;5.080;2024-01-30T14:47:37;4.90;;;2.80;;
36747;SDS011;22716;51.556;5.080;2024-01-30T14:50:06;4.47;;;2.97;;
36747;SDS011;22716;51.556;5.080;2024-01-30T14:52:35;10.38;;;3.03;;
36747;SDS011;22716;51.556;5.080;2024-01-30T14:55:08;7.77;;;4.03;;
36747;SDS011;22716;51.556;5.080;2024-01-30T14:57:37;8.13;;;3.30;;